sensor_id;sensor_type;location;lat;lon;timestamp;pressure;altitude;pressure_sealevel;temperature;humidity
75008;BME280;63554;48.940;12.050;2023-04-29T00:01:27;97037.31;;;10.25;98.50
75008;BME280;63554;48.940;12.050;2023-04-29T00:05:30;97031.53;;;10.22;98.54
75008;BME280;63554;48.940;12.050;2023-04-29T00:09:33;97036.72;;;10.23;98.40
75008;BME280;63554;48.940;12.050;2023-04-29T00:13:37;97035.88;;;10.23;98.47
75008;BME280;63554;48.940;12.050;2023-04-29T00:17:42;97024.00;;;10.24;98.50
75008;BME280;63554;48.940;12.050;2023-04-29T00:21:46;97015.91;;;10.24;98.46
75008;BME280;63554;48.940;12.050;2023-04-29T00:25:48;97014.25;;;10.23;98.49
75008;BME280;63554;48.940;12.050;2023-04-29T00:29:55;97011.31;;;10.24;98.47
75008;BME280;63554;48.940;12.050;2023-04-29T00:33:57;97020.25;;;10.25;98.50
75008;BME280;63554;48.940;12.050;2023-04-29T00:38:00;97023.19;;;10.23;98.33
75008;BME280;63554;48.940;12.050;2023-04-29T00:42:03;97016.94;;;10.23;98.60
75008;BME280;63554;48.940;12.050;2023-04-29T00:46:07;97017.78;;;10.23;98.50
75008;BME280;63554;48.940;12.050;2023-04-29T00:50:10;97020.72;;;10.22;98.49
75008;BME280;63554;48.940;12.050;2023-04-29T00:54:14;97015.31;;;10.22;98.54
75008;BME280;63554;48.940;12.050;2023-04-29T00:58:17;97008.69;;;10.18;98.55
75008;BME280;63554;48.940;12.050;2023-04-29T01:02:22;97001.50;;;10.12;98.72
75008;BME280;63554;48.940;12.050;2023-04-29T01:06:36;97009.00;;;10.09;98.71
75008;BME280;63554;48.940;12.050;2023-04-29T01:10:44;97015.44;;;10.08;98.66
75008;BME280;63554;48.940;12.050;2023-04-29T01:14:56;97003.44;;;10.04;98.68
75008;BME280;63554;48.940;12.050;2023-04-29T01:19:15;97006.75;;;10.06;98.56
75008;BME280;63554;48.940;12.050;2023-04-29T01:23:19;97000.72;;;10.04;98.55
75008;BME280;63554;48.940;12.050;2023-04-29T01:27:28;97007.41;;;10.02;98.43
75008;BME280;63554;48.940;12.050;2023-04-29T01:31:38;97010.47;;;10.05;98.26
75008;BME280;63554;48.940;12.050;2023-04-29T01:35:57;97015.44;;;10.08;98.08
75008;BME280;63554;48.940;12.050;2023-04-29T01:40:08;97022.34;;;10.04;98.06
75008;BME280;63554;48.940;12.050;2023-04-29T01:44:17;97021.53;;;10.04;98.26
75008;BME280;63554;48.940;12.050;2023-04-29T01:48:22;97004.47;;;10.03;98.42
75008;BME280;63554;48.940;12.050;2023-04-29T01:52:25;97001.41;;;10.00;98.55
75008;BME280;63554;48.940;12.050;2023-04-29T01:56:29;96986.84;;;10.01;98.75
75008;BME280;63554;48.940;12.050;2023-04-29T02:00:33;96982.94;;;9.97;98.78
75008;BME280;63554;48.940;12.050;2023-04-29T02:04:36;96996.66;;;9.95;98.93
75008;BME280;63554;48.940;12.050;2023-04-29T02:08:38;97005.97;;;9.99;98.98
75008;BME280;63554;48.940;12.050;2023-04-29T02:12:41;97002.84;;;10.02;98.91
75008;BME280;63554;48.940;12.050;2023-04-29T02:16:45;97019.28;;;10.01;98.82
75008;BME280;63554;48.940;12.050;2023-04-29T02:20:49;97005.97;;;9.99;98.90
75008;BME280;63554;48.940;12.050;2023-04-29T02:24:52;97005.97;;;9.99;98.90
75008;BME280;63554;48.940;12.050;2023-04-29T02:28:55;97007.69;;;9.94;98.95
75008;BME280;63554;48.940;12.050;2023-04-29T02:32:59;96998.97;;;9.92;99.15
75008;BME280;63554;48.940;12.050;2023-04-29T02:37:02;97021.47;;;9.92;99.45
75008;BME280;63554;48.940;12.050;2023-04-29T02:41:05;97017.69;;;9.93;99.35
75008;BME280;63554;48.940;12.050;2023-04-29T02:45:09;97012.75;;;9.90;99.57
75008;BME280;63554;48.940;12.050;2023-04-29T02:49:17;97011.28;;;9.87;99.65
75008;BME280;63554;48.940;12.050;2023-04-29T02:53:19;97007.56;;;9.88;99.77
75008;BME280;63554;48.940;12.050;2023-04-29T02:57:22;97002.16;;;9.88;99.92
75008;BME280;63554;48.940;12.050;2023-04-29T03:01:25;97012.16;;;9.88;99.97
75008;BME280;63554;48.940;12.050;2023-04-29T03:05:29;97005.66;;;9.89;99.87
75008;BME280;63554;48.940;12.050;2023-04-29T03:09:32;97012.97;;;9.88;100.00
75008;BME280;63554;48.940;12.050;2023-04-29T03:13:36;97004.47;;;9.85;99.96
75008;BME280;63554;48.940;12.050;2023-04-29T03:17:39;97015.88;;;9.87;100.00
75008;BME280;63554;48.940;12.050;2023-04-29T03:21:43;97004.84;;;9.88;100.00
75008;BME280;63554;48.940;12.050;2023-04-29T03:25:46;97017.31;;;9.89;99.88
75008;BME280;63554;48.940;12.050;2023-04-29T03:29:49;97013.56;;;9.90;99.94
75008;BME280;63554;48.940;12.050;2023-04-29T03:33:52;97007.34;;;9.90;99.92
75008;BME280;63554;48.940;12.050;2023-04-29T03:37:56;96997.56;;;9.89;100.00
75008;BME280;63554;48.940;12.050;2023-04-29T03:41:59;96998.84;;;9.86;100.00
75008;BME280;63554;48.940;12.050;2023-04-29T03:46:01;96992.63;;;9.86;100.00
75008;BME280;63554;48.940;12.050;2023-04-29T03:50:05;96999.88;;;9.85;100.00
75008;BME280;63554;48.940;12.050;2023-04-29T03:54:10;97002.81;;;9.84;100.00
75008;BME280;63554;48.940;12.050;2023-04-29T03:58:13;97011.97;;;9.83;100.00
75008;BME280;63554;48.940;12.050;2023-04-29T04:02:16;97009.50;;;9.81;100.00
75008;BME280;63554;48.940;12.050;2023-04-29T04:06:19;97009.50;;;9.81;100.00
75008;BME280;63554;48.940;12.050;2023-04-29T04:10:23;97012.41;;;9.80;100.00
75008;BME280;63554;48.940;12.050;2023-04-29T04:14:26;97009.72;;;9.80;100.00
75008;BME280;63554;48.940;12.050;2023-04-29T04:18:29;97007.84;;;9.80;100.00
75008;BME280;63554;48.940;12.050;2023-04-29T04:22:31;97016.31;;;9.84;100.00
75008;BME280;63554;48.940;12.050;2023-04-29T04:26:35;97019.66;;;9.86;100.00
75008;BME280;63554;48.940;12.050;2023-04-29T04:30:38;97018.59;;;9.87;100.00
75008;BME280;63554;48.940;12.050;2023-04-29T04:34:41;97019.41;;;9.87;100.00
75008;BME280;63554;48.940;12.050;2023-04-29T04:38:44;97011.53;;;9.86;100.00
75008;BME280;63554;48.940;12.050;2023-04-29T04:42:48;97022.50;;;9.91;100.00
75008;BME280;63554;48.940;12.050;2023-04-29T04:46:50;97024.16;;;9.92;100.00
75008;BME280;63554;48.940;12.050;2023-04-29T04:50:53;97023.91;;;9.94;100.00
75008;BME280;63554;48.940;12.050;2023-04-29T04:54:55;97035.09;;;9.97;100.00
75008;BME280;63554;48.940;12.050;2023-04-29T04:58:59;97036.19;;;9.96;100.00
75008;BME280;63554;48.940;12.050;2023-04-29T05:03:02;97038.19;;;10.01;100.00
75008;BME280;63554;48.940;12.050;2023-04-29T05:07:05;97040.91;;;10.01;100.00
75008;BME280;63554;48.940;12.050;2023-04-29T05:11:15;97038.41;;;9.99;100.00
75008;BME280;63554;48.940;12.050;2023-04-29T05:15:19;97035.72;;;9.99;100.00
75008;BME280;63554;48.940;12.050;2023-04-29T05:19:22;97045.03;;;10.03;100.00
75008;BME280;63554;48.940;12.050;2023-04-29T05:23:24;97053.72;;;10.05;100.00
75008;BME280;63554;48.940;12.050;2023-04-29T05:27:27;97062.84;;;10.11;100.00
75008;BME280;63554;48.940;12.050;2023-04-29T05:31:32;97065.31;;;10.13;100.00
75008;BME280;63554;48.940;12.050;2023-04-29T05:35:34;97065.69;;;10.16;100.00
75008;BME280;63554;48.940;12.050;2023-04-29T05:39:37;97060.72;;;10.13;100.00
75008;BME280;63554;48.940;12.050;2023-04-29T05:43:40;97065.91;;;10.15;100.00
75008;BME280;63554;48.940;12.050;2023-04-29T05:47:44;97082.31;;;10.20;100.00
75008;BME280;63554;48.940;12.050;2023-04-29T05:51:46;97085.16;;;10.25;100.00
75008;BME280;63554;48.940;12.050;2023-04-29T05:55:49;97081.34;;;10.33;100.00
75008;BME280;63554;48.940;12.050;2023-04-29T05:59:52;97088.81;;;10.37;100.00
75008;BME280;63554;48.940;12.050;2023-04-29T06:03:57;97086.03;;;10.44;100.00
75008;BME280;63554;48.940;12.050;2023-04-29T06:08:00;97095.13;;;10.49;100.00
75008;BME280;63554;48.940;12.050;2023-04-29T06:12:04;97101.75;;;10.54;100.00
75008;BME280;63554;48.940;12.050;2023-04-29T06:16:06;97116.47;;;10.58;100.00
75008;BME280;63554;48.940;12.050;2023-04-29T06:20:11;97103.91;;;10.63;100.00
75008;BME280;63554;48.940;12.050;2023-04-29T06:24:14;97112.53;;;10.72;100.00
75008;BME280;63554;48.940;12.050;2023-04-29T06:28:17;97118.34;;;10.76;99.67
75008;BME280;63554;48.940;12.050;2023-04-29T06:32:20;97119.69;;;10.85;98.96
75008;BME280;63554;48.940;12.050;2023-04-29T06:36:24;97123.75;;;10.94;98.33
75008;BME280;63554;48.940;12.050;2023-04-29T06:40:27;97123.66;;;11.01;97.37
75008;BME280;63554;48.940;12.050;2023-04-29T06:44:30;97127.38;;;11.18;96.74
75008;BME280;63554;48.940;12.050;2023-04-29T06:48:33;97126.59;;;11.30;96.72
75008;BME280;63554;48.940;12.050;2023-04-29T06:52:37;97117.13;;;11.39;94.55
75008;BME280;63554;48.940;12.050;2023-04-29T06:56:39;97135.88;;;11.64;93.38
75008;BME280;63554;48.940;12.050;2023-04-29T07:00:43;97123.38;;;11.93;91.35
75008;BME280;63554;48.940;12.050;2023-04-29T07:04:46;97126.81;;;12.00;90.97
75008;BME280;63554;48.940;12.050;2023-04-29T07:08:51;97131.28;;;12.18;91.22
75008;BME280;63554;48.940;12.050;2023-04-29T07:12:57;97143.91;;;12.36;88.74
75008;BME280;63554;48.940;12.050;2023-04-29T07:17:00;97139.06;;;12.26;90.23
75008;BME280;63554;48.940;12.050;2023-04-29T07:21:03;97140.63;;;12.34;88.23
75008;BME280;63554;48.940;12.050;2023-04-29T07:25:07;97138.97;;;12.57;86.64
75008;BME280;63554;48.940;12.050;2023-04-29T07:29:11;97144.47;;;12.74;85.62
75008;BME280;63554;48.940;12.050;2023-04-29T07:33:14;97140.41;;;13.00;85.32
75008;BME280;63554;48.940;12.050;2023-04-29T07:37:17;97138.88;;;13.04;85.11
75008;BME280;63554;48.940;12.050;2023-04-29T07:41:21;97147.31;;;13.19;83.34
75008;BME280;63554;48.940;12.050;2023-04-29T07:45:23;97148.56;;;13.40;82.60
75008;BME280;63554;48.940;12.050;2023-04-29T07:49:26;97136.41;;;13.43;83.23
75008;BME280;63554;48.940;12.050;2023-04-29T07:53:29;97142.72;;;13.94;82.07
75008;BME280;63554;48.940;12.050;2023-04-29T07:57:33;97140.41;;;14.03;80.86
75008;BME280;63554;48.940;12.050;2023-04-29T08:01:36;97157.38;;;13.76;79.60
75008;BME280;63554;48.940;12.050;2023-04-29T08:05:38;97152.06;;;13.98;79.12
75008;BME280;63554;48.940;12.050;2023-04-29T08:09:43;97152.19;;;14.59;76.64
75008;BME280;63554;48.940;12.050;2023-04-29T08:13:47;97158.63;;;14.36;76.13
75008;BME280;63554;48.940;12.050;2023-04-29T08:17:50;97157.22;;;14.17;77.50
75008;BME280;63554;48.940;12.050;2023-04-29T08:21:52;97143.25;;;14.25;76.05
75008;BME280;63554;48.940;12.050;2023-04-29T08:25:55;97145.63;;;14.21;74.83
75008;BME280;63554;48.940;12.050;2023-04-29T08:29:59;97142.28;;;14.36;76.47
75008;BME280;63554;48.940;12.050;2023-04-29T08:34:02;97146.63;;;14.54;73.94
75008;BME280;63554;48.940;12.050;2023-04-29T08:38:05;97155.91;;;14.36;74.46
75008;BME280;63554;48.940;12.050;2023-04-29T08:42:09;97162.53;;;14.07;75.55
75008;BME280;63554;48.940;12.050;2023-04-29T08:46:13;97155.25;;;13.95;76.75
75008;BME280;63554;48.940;12.050;2023-04-29T08:50:17;97157.59;;;14.03;77.39
75008;BME280;63554;48.940;12.050;2023-04-29T08:54:19;97168.63;;;13.97;77.32
75008;BME280;63554;48.940;12.050;2023-04-29T08:58:24;97160.53;;;14.36;77.48
75008;BME280;63554;48.940;12.050;2023-04-29T09:02:28;97168.63;;;14.31;77.68
75008;BME280;63554;48.940;12.050;2023-04-29T09:06:31;97169.69;;;13.96;78.10
75008;BME280;63554;48.940;12.050;2023-04-29T09:10:35;97168.84;;;13.78;78.47
75008;BME280;63554;48.940;12.050;2023-04-29T09:14:38;97175.63;;;13.64;79.11
75008;BME280;63554;48.940;12.050;2023-04-29T09:18:44;97158.69;;;13.74;79.44
75008;BME280;63554;48.940;12.050;2023-04-29T09:22:47;97161.59;;;14.01;78.57
75008;BME280;63554;48.940;12.050;2023-04-29T09:26:51;97168.13;;;14.17;77.70
75008;BME280;63554;48.940;12.050;2023-04-29T09:30:53;97155.91;;;14.36;77.21
75008;BME280;63554;48.940;12.050;2023-04-29T09:34:57;97156.88;;;14.64;77.18
75008;BME280;63554;48.940;12.050;2023-04-29T09:39:00;97164.53;;;14.84;76.07
75008;BME280;63554;48.940;12.050;2023-04-29T09:43:10;97171.34;;;15.03;73.71
75008;BME280;63554;48.940;12.050;2023-04-29T09:47:14;97172.72;;;15.06;73.54
75008;BME280;63554;48.940;12.050;2023-04-29T09:51:19;97171.03;;;15.00;74.68
75008;BME280;63554;48.940;12.050;2023-04-29T09:55:21;97169.53;;;14.70;74.44
75008;BME280;63554;48.940;12.050;2023-04-29T09:59:25;97179.97;;;14.56;76.55
75008;BME280;63554;48.940;12.050;2023-04-29T10:03:30;97183.63;;;14.50;76.69
75008;BME280;63554;48.940;12.050;2023-04-29T10:07:38;97181.41;;;14.47;77.30
75008;BME280;63554;48.940;12.050;2023-04-29T10:11:41;97176.59;;;14.88;76.14
75008;BME280;63554;48.940;12.050;2023-04-29T10:15:51;97175.53;;;15.33;76.50
75008;BME280;63554;48.940;12.050;2023-04-29T10:20:01;97172.66;;;15.45;72.65
75008;BME280;63554;48.940;12.050;2023-04-29T10:24:09;97171.19;;;15.37;71.77
75008;BME280;63554;48.940;12.050;2023-04-29T10:28:14;97174.44;;;15.34;72.87
75008;BME280;63554;48.940;12.050;2023-04-29T10:32:18;97173.41;;;15.18;73.01
75008;BME280;63554;48.940;12.050;2023-04-29T10:36:24;97180.78;;;15.18;70.18
75008;BME280;63554;48.940;12.050;2023-04-29T10:40:38;97183.56;;;15.01;68.01
75008;BME280;63554;48.940;12.050;2023-04-29T10:49:20;97187.25;;;15.12;68.79
75008;BME280;63554;48.940;12.050;2023-04-29T10:53:26;97187.38;;;15.00;70.87
75008;BME280;63554;48.940;12.050;2023-04-29T10:57:31;97185.91;;;15.58;69.63
75008;BME280;63554;48.940;12.050;2023-04-29T11:01:45;97188.97;;;15.89;65.26
75008;BME280;63554;48.940;12.050;2023-04-29T11:06:07;97172.75;;;16.42;63.98
75008;BME280;63554;48.940;12.050;2023-04-29T11:10:11;97182.19;;;16.24;64.36
75008;BME280;63554;48.940;12.050;2023-04-29T11:14:20;97192.47;;;16.12;63.86
75008;BME280;63554;48.940;12.050;2023-04-29T11:18:24;97186.81;;;16.24;62.85
75008;BME280;63554;48.940;12.050;2023-04-29T11:22:27;97185.34;;;16.11;62.92
75008;BME280;63554;48.940;12.050;2023-04-29T11:26:34;97184.94;;;15.97;62.94
75008;BME280;63554;48.940;12.050;2023-04-29T11:30:39;97175.44;;;15.99;63.17
75008;BME280;63554;48.940;12.050;2023-04-29T11:34:41;97184.44;;;16.00;64.32
75008;BME280;63554;48.940;12.050;2023-04-29T11:38:44;97184.44;;;16.00;63.99
75008;BME280;63554;48.940;12.050;2023-04-29T11:42:47;97195.13;;;15.79;64.52
75008;BME280;63554;48.940;12.050;2023-04-29T11:46:52;97195.25;;;15.68;65.94
75008;BME280;63554;48.940;12.050;2023-04-29T11:50:56;97193.94;;;15.97;64.36
75008;BME280;63554;48.940;12.050;2023-04-29T11:55:01;97201.56;;;16.23;63.11
75008;BME280;63554;48.940;12.050;2023-04-29T11:59:04;97204.09;;;16.34;60.63
75008;BME280;63554;48.940;12.050;2023-04-29T12:03:14;97200.06;;;16.37;61.40
75008;BME280;63554;48.940;12.050;2023-04-29T12:07:17;97203.72;;;16.20;60.36
75008;BME280;63554;48.940;12.050;2023-04-29T12:11:22;97207.88;;;15.96;59.71
75008;BME280;63554;48.940;12.050;2023-04-29T12:15:26;97203.13;;;16.13;58.69
75008;BME280;63554;48.940;12.050;2023-04-29T12:19:31;97205.09;;;16.88;56.24
75008;BME280;63554;48.940;12.050;2023-04-29T12:23:34;97203.31;;;17.14;55.50
75008;BME280;63554;48.940;12.050;2023-04-29T12:27:39;97204.72;;;17.22;55.51
75008;BME280;63554;48.940;12.050;2023-04-29T12:31:46;97194.53;;;17.80;55.03
75008;BME280;63554;48.940;12.050;2023-04-29T12:35:50;97206.97;;;18.29;54.50
75008;BME280;63554;48.940;12.050;2023-04-29T12:39:54;97204.09;;;17.77;55.70
75008;BME280;63554;48.940;12.050;2023-04-29T12:43:57;97206.66;;;18.10;53.99
75008;BME280;63554;48.940;12.050;2023-04-29T12:48:01;97210.75;;;18.02;54.65
75008;BME280;63554;48.940;12.050;2023-04-29T12:52:11;97207.56;;;17.47;57.10
75008;BME280;63554;48.940;12.050;2023-04-29T12:56:14;97206.75;;;16.94;57.70
75008;BME280;63554;48.940;12.050;2023-04-29T13:00:18;97213.78;;;16.47;60.18
75008;BME280;63554;48.940;12.050;2023-04-29T13:04:21;97218.63;;;16.40;59.56
75008;BME280;63554;48.940;12.050;2023-04-29T13:08:25;97215.56;;;16.31;60.47
75008;BME280;63554;48.940;12.050;2023-04-29T13:12:28;97209.00;;;16.70;58.72
75008;BME280;63554;48.940;12.050;2023-04-29T13:16:31;97199.91;;;16.91;57.65
75008;BME280;63554;48.940;12.050;2023-04-29T13:20:36;97200.75;;;16.92;57.43
75008;BME280;63554;48.940;12.050;2023-04-29T13:24:43;97199.16;;;17.06;57.14
75008;BME280;63554;48.940;12.050;2023-04-29T13:28:46;97202.50;;;17.18;56.18
75008;BME280;63554;48.940;12.050;2023-04-29T13:32:48;97197.34;;;17.22;52.26
75008;BME280;63554;48.940;12.050;2023-04-29T13:36:57;97207.28;;;17.44;51.55
75008;BME280;63554;48.940;12.050;2023-04-29T13:41:01;97193.56;;;17.38;50.08
75008;BME280;63554;48.940;12.050;2023-04-29T13:45:10;97197.50;;;17.63;50.57
75008;BME280;63554;48.940;12.050;2023-04-29T13:49:16;97199.56;;;18.24;49.35
75008;BME280;63554;48.940;12.050;2023-04-29T13:53:39;97198.44;;;17.26;52.26
75008;BME280;63554;48.940;12.050;2023-04-29T13:58:03;97202.50;;;17.18;53.17
75008;BME280;63554;48.940;12.050;2023-04-29T14:02:09;97203.06;;;17.20;53.13
75008;BME280;63554;48.940;12.050;2023-04-29T14:06:17;97206.69;;;16.84;53.66
75008;BME280;63554;48.940;12.050;2023-04-29T14:10:19;97207.88;;;16.28;54.84
75008;BME280;63554;48.940;12.050;2023-04-29T14:14:23;97197.72;;;16.56;55.20
75008;BME280;63554;48.940;12.050;2023-04-29T14:18:26;97204.59;;;16.96;55.12
75008;BME280;63554;48.940;12.050;2023-04-29T14:22:30;97206.25;;;17.02;54.00
75008;BME280;63554;48.940;12.050;2023-04-29T14:26:33;97222.88;;;16.58;53.36
75008;BME280;63554;48.940;12.050;2023-04-29T14:30:38;97224.72;;;17.27;52.49
75008;BME280;63554;48.940;12.050;2023-04-29T14:34:47;97218.22;;;17.44;49.81
75008;BME280;63554;48.940;12.050;2023-04-29T14:38:49;97215.81;;;17.52;49.74
75008;BME280;63554;48.940;12.050;2023-04-29T14:42:52;97210.50;;;18.14;49.69
75008;BME280;63554;48.940;12.050;2023-04-29T14:46:56;97218.47;;;18.41;48.77
75008;BME280;63554;48.940;12.050;2023-04-29T14:50:59;97224.75;;;18.36;48.04
75008;BME280;63554;48.940;12.050;2023-04-29T14:55:02;97233.25;;;17.46;49.10
75008;BME280;63554;48.940;12.050;2023-04-29T14:59:05;97232.69;;;16.54;52.63
75008;BME280;63554;48.940;12.050;2023-04-29T15:03:10;97234.13;;;16.02;55.37
75008;BME280;63554;48.940;12.050;2023-04-29T15:07:22;97237.66;;;16.30;55.85
75008;BME280;63554;48.940;12.050;2023-04-29T15:11:24;97245.22;;;16.50;53.89
75008;BME280;63554;48.940;12.050;2023-04-29T15:15:27;97248.81;;;16.23;54.46
75008;BME280;63554;48.940;12.050;2023-04-29T15:19:31;97257.09;;;16.06;55.83
75008;BME280;63554;48.940;12.050;2023-04-29T15:23:34;97257.16;;;15.84;55.92
75008;BME280;63554;48.940;12.050;2023-04-29T15:27:37;97264.63;;;16.21;54.74
75008;BME280;63554;48.940;12.050;2023-04-29T15:31:39;97269.16;;;16.37;53.95
75008;BME280;63554;48.940;12.050;2023-04-29T15:35:43;97274.50;;;16.54;54.79
75008;BME280;63554;48.940;12.050;2023-04-29T15:39:46;97283.94;;;16.14;55.04
75008;BME280;63554;48.940;12.050;2023-04-29T15:43:49;97285.75;;;16.04;54.81
75008;BME280;63554;48.940;12.050;2023-04-29T15:47:52;97289.22;;;16.21;53.42
75008;BME280;63554;48.940;12.050;2023-04-29T15:51:56;97301.06;;;16.32;53.70
75008;BME280;63554;48.940;12.050;2023-04-29T15:55:58;97298.97;;;15.90;54.32
75008;BME280;63554;48.940;12.050;2023-04-29T16:00:02;97305.03;;;15.53;55.55
75008;BME280;63554;48.940;12.050;2023-04-29T16:04:05;97313.28;;;15.19;56.40
75008;BME280;63554;48.940;12.050;2023-04-29T16:08:09;97312.78;;;15.05;57.16
75008;BME280;63554;48.940;12.050;2023-04-29T16:12:12;97312.16;;;14.98;58.03
75008;BME280;63554;48.940;12.050;2023-04-29T16:16:14;97319.50;;;14.80;58.72
75008;BME280;63554;48.940;12.050;2023-04-29T16:20:17;97314.88;;;14.64;58.86
75008;BME280;63554;48.940;12.050;2023-04-29T16:24:23;97321.69;;;14.50;59.68
75008;BME280;63554;48.940;12.050;2023-04-29T16:28:26;97320.16;;;14.71;59.46
75008;BME280;63554;48.940;12.050;2023-04-29T16:32:29;97331.97;;;14.76;59.00
75008;BME280;63554;48.940;12.050;2023-04-29T16:36:33;97344.25;;;14.62;59.91
75008;BME280;63554;48.940;12.050;2023-04-29T16:40:37;97356.47;;;14.59;59.72
75008;BME280;63554;48.940;12.050;2023-04-29T16:44:40;97351.28;;;14.75;59.67
75008;BME280;63554;48.940;12.050;2023-04-29T16:48:42;97354.75;;;14.70;59.80
75008;BME280;63554;48.940;12.050;2023-04-29T16:52:46;97359.03;;;14.66;60.52
75008;BME280;63554;48.940;12.050;2023-04-29T16:56:51;97353.88;;;14.53;60.03
75008;BME280;63554;48.940;12.050;2023-04-29T17:00:53;97359.44;;;14.29;60.63
75008;BME280;63554;48.940;12.050;2023-04-29T17:04:56;97359.63;;;14.11;61.56
75008;BME280;63554;48.940;12.050;2023-04-29T17:08:59;97368.63;;;13.99;61.60
75008;BME280;63554;48.940;12.050;2023-04-29T17:13:04;97366.22;;;13.86;62.30
75008;BME280;63554;48.940;12.050;2023-04-29T17:17:09;97370.47;;;13.82;62.47
75008;BME280;63554;48.940;12.050;2023-04-29T17:21:15;97365.38;;;13.74;62.85
75008;BME280;63554;48.940;12.050;2023-04-29T17:25:18;97372.53;;;13.63;63.12
75008;BME280;63554;48.940;12.050;2023-04-29T17:29:25;97373.34;;;13.52;62.88
75008;BME280;63554;48.940;12.050;2023-04-29T17:33:28;97375.03;;;13.53;63.63
75008;BME280;63554;48.940;12.050;2023-04-29T17:37:35;97388.25;;;13.49;63.70
75008;BME280;63554;48.940;12.050;2023-04-29T17:41:37;97379.97;;;13.32;64.06
75008;BME280;63554;48.940;12.050;2023-04-29T17:45:41;97388.81;;;13.28;64.47
75008;BME280;63554;48.940;12.050;2023-04-29T17:49:44;97388.47;;;13.24;64.67
75008;BME280;63554;48.940;12.050;2023-04-29T17:53:47;97399.19;;;13.19;65.09
75008;BME280;63554;48.940;12.050;2023-04-29T17:57:49;97395.88;;;13.05;65.16
75008;BME280;63554;48.940;12.050;2023-04-29T18:01:53;97409.44;;;12.93;65.42
75008;BME280;63554;48.940;12.050;2023-04-29T18:05:56;97404.72;;;12.89;65.85
75008;BME280;63554;48.940;12.050;2023-04-29T18:09:59;97416.03;;;12.85;65.93
75008;BME280;63554;48.940;12.050;2023-04-29T18:14:02;97413.44;;;12.79;66.22
75008;BME280;63554;48.940;12.050;2023-04-29T18:18:06;97419.47;;;12.81;66.41
75008;BME280;63554;48.940;12.050;2023-04-29T18:22:09;97422.41;;;12.79;66.73
75008;BME280;63554;48.940;12.050;2023-04-29T18:26:12;97426.44;;;12.77;67.30
75008;BME280;63554;48.940;12.050;2023-04-29T18:30:15;97428.53;;;12.75;67.09
75008;BME280;63554;48.940;12.050;2023-04-29T18:34:19;97429.09;;;12.65;67.84
75008;BME280;63554;48.940;12.050;2023-04-29T18:38:21;97432.97;;;12.57;68.02
75008;BME280;63554;48.940;12.050;2023-04-29T18:42:24;97443.34;;;12.49;68.59
75008;BME280;63554;48.940;12.050;2023-04-29T18:46:27;97444.94;;;12.38;69.47
75008;BME280;63554;48.940;12.050;2023-04-29T18:50:32;97450.31;;;12.07;70.86
75008;BME280;63554;48.940;12.050;2023-04-29T18:54:35;97454.59;;;11.97;71.65
75008;BME280;63554;48.940;12.050;2023-04-29T18:58:38;97459.94;;;11.85;72.17
75008;BME280;63554;48.940;12.050;2023-04-29T19:02:40;97460.81;;;11.79;72.58
75008;BME280;63554;48.940;12.050;2023-04-29T19:06:44;97479.81;;;11.79;72.75
75008;BME280;63554;48.940;12.050;2023-04-29T19:10:47;97484.63;;;11.77;72.84
75008;BME280;63554;48.940;12.050;2023-04-29T19:14:50;97479.63;;;11.74;72.97
75008;BME280;63554;48.940;12.050;2023-04-29T19:18:53;97489.88;;;11.72;73.14
75008;BME280;63554;48.940;12.050;2023-04-29T19:22:57;97487.47;;;11.63;73.58
75008;BME280;63554;48.940;12.050;2023-04-29T19:26:59;97494.97;;;11.43;74.22
75008;BME280;63554;48.940;12.050;2023-04-29T19:31:02;97499.88;;;11.27;75.18
75008;BME280;63554;48.940;12.050;2023-04-29T19:35:06;97502.06;;;11.12;75.25
75008;BME280;63554;48.940;12.050;2023-04-29T19:39:10;97504.56;;;11.14;75.39
75008;BME280;63554;48.940;12.050;2023-04-29T19:43:14;97505.59;;;11.13;75.56
75008;BME280;63554;48.940;12.050;2023-04-29T19:47:17;97505.38;;;11.14;76.11
75008;BME280;63554;48.940;12.050;2023-04-29T19:51:20;97509.38;;;11.12;75.57
75008;BME280;63554;48.940;12.050;2023-04-29T19:55:24;97510.25;;;11.05;75.20
75008;BME280;63554;48.940;12.050;2023-04-29T19:59:26;97510.72;;;10.96;75.01
75008;BME280;63554;48.940;12.050;2023-04-29T20:03:29;97514.53;;;10.88;75.02
75008;BME280;63554;48.940;12.050;2023-04-29T20:07:33;97521.19;;;10.85;75.40
75008;BME280;63554;48.940;12.050;2023-04-29T20:11:37;97522.84;;;10.86;75.52
75008;BME280;63554;48.940;12.050;2023-04-29T20:15:40;97535.34;;;10.87;75.65
75008;BME280;63554;48.940;12.050;2023-04-29T20:19:42;97518.31;;;10.80;75.82
75008;BME280;63554;48.940;12.050;2023-04-29T20:23:45;97521.03;;;10.80;75.90
75008;BME280;63554;48.940;12.050;2023-04-29T20:27:53;97527.06;;;10.82;75.66
75008;BME280;63554;48.940;12.050;2023-04-29T20:31:58;97527.91;;;10.76;75.28
75008;BME280;63554;48.940;12.050;2023-04-29T20:36:01;97534.78;;;10.72;75.90
75008;BME280;63554;48.940;12.050;2023-04-29T20:40:10;97535.84;;;10.71;76.16
75008;BME280;63554;48.940;12.050;2023-04-29T20:44:14;97535.91;;;10.64;76.37
75008;BME280;63554;48.940;12.050;2023-04-29T20:48:17;97542.81;;;10.54;76.78
75008;BME280;63554;48.940;12.050;2023-04-29T20:52:20;97548.88;;;10.42;77.34
75008;BME280;63554;48.940;12.050;2023-04-29T20:56:24;97554.94;;;10.24;77.94
75008;BME280;63554;48.940;12.050;2023-04-29T21:00:28;97550.78;;;10.15;78.31
75008;BME280;63554;48.940;12.050;2023-04-29T21:04:31;97552.88;;;10.13;78.20
75008;BME280;63554;48.940;12.050;2023-04-29T21:08:34;97553.72;;;10.07;78.02
75008;BME280;63554;48.940;12.050;2023-04-29T21:12:37;97551.88;;;10.07;77.85
75008;BME280;63554;48.940;12.050;2023-04-29T21:16:42;97556.22;;;10.08;76.97
75008;BME280;63554;48.940;12.050;2023-04-29T21:20:44;97548.31;;;10.07;76.90